Time;durP1;ratioP1;P1;durP2;ratioP2;P2;SDS_P1;SDS_P2;PMS_P1;PMS_P2;Temp;Humidity;BMP_temperature;BMP_pressure;BME280_temperature;BME280_humidity;BME280_pressure;Samples;Min_cycle;Max_cycle;Signal;HPM_P1;HPM_P2
2021/05/23 00:00:29;;;;;;;2.95;1.20;;;10.00;99.90;;;;;;6066535;23;20472;-93
2021/05/23 00:03:39;;;;;;;3.85;1.20;;;9.90;99.90;;;;;;6067207;23;20037;-92
2021/05/23 00:06:24;;;;;;;2.75;1.15;;;9.90;99.90;;;;;;6041819;23;20044;-90
2021/05/23 00:09:08;;;;;;;3.38;1.38;;;9.90;99.90;;;;;;6057372;23;20049;-93
2021/05/23 00:12:12;;;;;;;3.45;1.10;;;10.00;99.90;;;;;;6137155;23;20111;-93
2021/05/23 00:15:23;;;;;;;2.20;1.10;;;10.00;99.90;;;;;;6186606;23;20024;-93
2021/05/23 00:18:14;;;;;;;6.72;1.30;;;10.00;99.90;;;;;;6165848;23;20032;-93
2021/05/23 00:23:49;;;;;;;4.10;1.20;;;9.80;99.90;;;;;;6173570;23;20096;-92
2021/05/23 00:26:28;;;;;;;2.23;1.20;;;9.80;99.90;;;;;;6159124;23;20309;-92
2021/05/23 00:29:03;;;;;;;5.53;1.10;;;9.80;99.90;;;;;;6158955;23;20025;-93
2021/05/23 00:31:39;;;;;;;1.40;1.30;;;9.80;99.90;;;;;;6159246;23;20021;-93
2021/05/23 00:34:10;;;;;;;4.20;1.15;;;9.80;99.90;;;;;;6191252;23;20016;-93
2021/05/23 00:37:08;;;;;;;2.65;1.30;;;9.80;99.90;;;;;;6192042;23;20032;-93
2021/05/23 00:40:17;;;;;;;;;;;;;;;;;;;;;
2021/05/23 00:43:18;;;;;;;1.98;1.30;;;9.70;99.90;;;;;;6199266;23;20021;-94
2021/05/23 00:46:47;;;;;;;;;;;;;;;;;;;;;
2021/05/23 00:50:18;;;;;;;1.45;1.23;;;9.60;99.90;;;;;;6068300;23;20019;-92
2021/05/23 00:53:15;;;;;;;2.58;1.20;;;9.50;99.90;;;;;;6069206;23;20450;-92
2021/05/23 00:55:47;;;;;;;3.75;1.30;;;9.50;99.90;;;;;;6069415;23;20103;-92
2021/05/23 00:59:09;;;;;;;;;;;;;;;;;;;;;
2021/05/23 01:02:17;;;;;;;;;;;;;;;;;;;;;
2021/05/23 01:05:07;;;;;;;;;;;;;;;;;;;;;
2021/05/23 01:07:44;;;;;;;2.90;1.30;;;9.40;99.90;;;;;;6143173;23;20025;-90
2021/05/23 01:11:01;;;;;;;2.53;1.35;;;9.30;99.90;;;;;;6199899;23;20044;-91
2021/05/23 01:13:36;;;;;;;2.33;1.10;;;9.30;99.90;;;;;;6176443;23;20053;-92
2021/05/23 01:16:32;;;;;;;1.85;1.25;;;9.30;99.90;;;;;;6200141;23;20123;-91
2021/05/23 01:19:58;;;;;;;2.22;1.15;;;9.30;99.90;;;;;;6198398;23;20021;-89
2021/05/23 01:22:41;;;;;;;3.20;1.30;;;9.30;99.90;;;;;;6066900;23;20027;-91
2021/05/23 01:25:38;;;;;;;;;;;;;;;;;;;;;
2021/05/23 01:28:34;;;;;;;2.53;1.38;;;9.30;99.90;;;;;;6197611;23;20017;-92
2021/05/23 01:34:29;;;;;;;3.05;1.25;;;9.30;99.90;;;;;;6191752;23;20069;-86
2021/05/23 01:37:11;;;;;;;4.45;1.40;;;9.40;99.90;;;;;;6173010;23;20033;-92
2021/05/23 01:40:07;;;;;;;3.53;1.30;;;9.40;99.90;;;;;;6151808;23;21039;-92
2021/05/23 01:46:32;;;;;;;1.25;1.10;;;9.40;99.90;;;;;;6172886;23;20140;-92
2021/05/23 01:49:17;;;;;;;1.48;1.30;;;9.40;99.90;;;;;;6186585;23;20075;-91
2021/05/23 01:51:58;;;;;;;1.48;1.00;;;9.40;99.90;;;;;;6186578;23;20354;-94
2021/05/23 01:55:21;;;;;;;3.33;1.50;;;9.40;99.90;;;;;;6188362;23;20021;-93
2021/05/23 02:04:24;;;;;;;2.55;1.33;;;9.30;99.90;;;;;;6135744;23;20025;-91
2021/05/23 02:06:52;;;;;;;3.15;1.45;;;9.30;99.90;;;;;;6162354;23;20440;-91
2021/05/23 02:09:22;;;;;;;2.95;1.38;;;9.20;99.90;;;;;;6186407;23;20424;-93
2021/05/23 02:12:44;;;;;;;;;;;;;;;;;;;;;
2021/05/23 02:15:16;;;;;;;3.22;1.40;;;9.20;99.90;;;;;;6193180;23;20021;-93
2021/05/23 02:17:49;;;;;;;1.55;1.20;;;9.20;99.90;;;;;;6191346;23;20025;-92
2021/05/23 02:20:30;;;;;;;1.20;1.10;;;9.10;99.90;;;;;;6192381;23;20034;-93
2021/05/23 02:23:05;;;;;;;4.45;1.48;;;9.10;99.90;;;;;;6167944;23;20026;-91
2021/05/23 02:25:34;;;;;;;3.88;1.40;;;9.00;99.90;;;;;;6196888;23;20029;-90
2021/05/23 02:28:05;;;;;;;3.88;1.42;;;8.90;99.90;;;;;;6198664;23;20475;-91
2021/05/23 02:30:41;;;;;;;4.18;1.33;;;8.80;99.90;;;;;;6169117;23;20036;-90
2021/05/23 02:33:10;;;;;;;2.28;1.02;;;8.60;99.90;;;;;;6195726;23;20059;-90
2021/05/23 02:35:43;;;;;;;0.85;0.85;;;8.40;99.90;;;;;;6195211;23;20025;-90
2021/05/23 02:38:12;;;;;;;1.05;0.93;;;8.20;99.90;;;;;;6162478;23;20024;-93
2021/05/23 02:40:40;;;;;;;1.77;1.00;;;8.00;99.90;;;;;;6184080;23;20112;-91
2021/05/23 02:43:15;;;;;;;4.53;1.00;;;7.90;99.90;;;;;;6183263;23;20024;-92
2021/05/23 02:45:52;;;;;;;1.98;0.85;;;7.70;99.90;;;;;;6183770;23;20116;-91
2021/05/23 02:48:20;;;;;;;1.20;1.08;;;7.70;99.90;;;;;;6183970;23;20025;-94
2021/05/23 02:50:52;;;;;;;1.17;0.98;;;7.60;99.90;;;;;;6157638;23;20487;-92
2021/05/23 02:53:22;;;;;;;;;;;7.60;99.90;;;;;;6159094;23;20017;-93
2021/05/23 02:55:53;;;;;;;2.65;1.30;;;7.60;99.90;;;;;;6184369;23;19920;-92
2021/05/23 02:58:25;;;;;;;1.50;1.17;;;7.50;99.90;;;;;;6190091;23;20021;-92
2021/05/23 03:01:11;;;;;;;1.02;1.00;;;7.50;99.90;;;;;;6136004;23;20021;-92
2021/05/23 03:04:34;;;;;;;;;;;;;;;;;;;;;
2021/05/23 03:07:27;;;;;;;1.40;1.30;;;7.40;99.90;;;;;;6149752;23;20031;-89
2021/05/23 03:09:58;;;;;;;2.15;0.80;;;7.40;99.90;;;;;;6188070;23;20032;-91
2021/05/23 03:12:44;;;;;;;2.47;1.05;;;7.30;99.90;;;;;;6184884;23;20432;-91
2021/05/23 03:15:51;;;;;;;5.68;1.55;;;7.30;99.90;;;;;;6158083;23;20048;-93
2021/05/23 03:21:25;;;;;;;2.25;0.90;;;7.30;99.90;;;;;;6183646;23;20037;-95
2021/05/23 03:24:13;;;;;;;1.35;1.25;;;7.20;99.90;;;;;;6195578;23;20040;-92
2021/05/23 03:26:40;;;;;;;1.55;1.30;;;7.20;99.90;;;;;;6187379;23;20455;-91
2021/05/23 03:29:14;;;;;;;1.52;1.10;;;7.20;99.90;;;;;;6186815;23;20021;-93
2021/05/23 03:34:59;;;;;;;3.83;1.25;;;7.20;99.90;;;;;;6168159;23;20116;-91
2021/05/23 03:37:41;;;;;;;1.08;1.05;;;7.20;99.90;;;;;;6186637;23;20079;-92
2021/05/23 03:40:38;;;;;;;1.75;1.00;;;7.20;99.90;;;;;;6095899;23;20023;-93
2021/05/23 03:43:07;;;;;;;2.97;1.20;;;7.20;99.90;;;;;;6095024;23;20093;-90
2021/05/23 03:45:34;;;;;;;1.40;1.20;;;7.30;99.90;;;;;;6071260;23;20018;-92
2021/05/23 03:48:02;;;;;;;2.20;1.30;;;7.30;99.90;;;;;;6094169;23;20060;-91
2021/05/23 03:50:31;;;;;;;1.20;1.20;;;7.40;99.90;;;;;;6094560;23;20089;-90
2021/05/23 03:53:04;;;;;;;1.88;1.23;;;7.30;99.90;;;;;;6095016;23;20378;-91
2021/05/23 03:55:34;;;;;;;4.18;1.17;;;7.40;99.90;;;;;;6094799;23;20030;-92
2021/05/23 03:58:01;;;;;;;0.98;0.98;;;7.40;99.90;;;;;;6127916;23;20087;-91
2021/05/23 04:00:28;;;;;;;1.20;1.10;;;7.40;99.90;;;;;;6186142;23;20017;-92
2021/05/23 04:02:56;;;;;;;1.83;1.20;;;7.40;99.90;;;;;;6186687;23;20025;-92
2021/05/23 04:05:27;;;;;;;1.00;1.00;;;7.40;99.90;;;;;;6159422;23;20076;-92
2021/05/23 04:07:55;;;;;;;2.45;0.90;;;7.40;99.90;;;;;;6185683;23;20039;-91
2021/05/23 04:10:28;;;;;;;2.45;1.10;;;7.50;99.90;;;;;;6188188;23;20027;-89
2021/05/23 04:13:07;;;;;;;2.28;1.40;;;7.50;99.90;;;;;;6164109;23;20040;-91
2021/05/23 04:15:34;;;;;;;4.68;1.40;;;7.50;99.90;;;;;;6186231;23;20021;-91
2021/05/23 04:18:03;;;;;;;2.78;1.20;;;7.50;99.90;;;;;;6188417;23;20024;-91
2021/05/23 04:20:31;;;;;;;2.30;1.20;;;7.50;99.90;;;;;;6187221;23;20144;-91
2021/05/23 04:23:31;;;;;;;;;;;;;;;;;;;;;
2021/05/23 04:25:59;;;;;;;3.42;1.70;;;7.60;99.90;;;;;;6181669;23;20047;-92
2021/05/23 04:28:49;;;;;;;1.83;1.48;;;7.60;99.90;;;;;;6095063;23;20074;-91
2021/05/23 04:32:06;;;;;;;4.10;1.20;;;7.70;99.90;;;;;;6073644;23;20029;-91
2021/05/23 04:34:40;;;;;;;3.75;1.30;;;7.70;99.90;;;;;;6095439;23;20026;-93
2021/05/23 04:37:19;;;;;;;;;;;;;;;;;;;;;
2021/05/23 04:39:49;;;;;;;2.42;1.50;;;7.70;99.90;;;;;;6101921;23;19928;-93
2021/05/23 04:42:22;;;;;;;2.22;1.35;;;7.70;99.90;;;;;;6100152;23;20022;-93
2021/05/23 04:45:12;;;;;;;2.08;1.20;;;7.70;99.90;;;;;;6101943;23;20045;-92
2021/05/23 04:48:00;;;;;;;2.03;1.58;;;7.80;99.90;;;;;;6190188;23;20108;-89
2021/05/23 04:50:36;;;;;;;2.03;1.50;;;7.80;99.90;;;;;;6192096;23;20025;-92
2021/05/23 04:53:05;;;;;;;2.67;1.50;;;7.80;99.90;;;;;;6193633;23;20048;-91
2021/05/23 04:55:53;;;;;;;3.28;1.65;;;7.90;99.90;;;;;;6170751;23;20056;-91
2021/05/23 04:58:32;;;;;;;2.30;1.50;;;7.90;99.90;;;;;;6146062;23;20035;-92
2021/05/23 05:01:15;;;;;;;3.10;1.77;;;7.90;99.90;;;;;;6187116;23;20047;-91
2021/05/23 05:03:48;;;;;;;5.45;1.77;;;8.00;99.90;;;;;;6161789;23;20305;-91
2021/05/23 05:07:04;;;;;;;;;;;;;;;;;;;;;
2021/05/23 05:10:18;;;;;;;;;;;;;;;;;;;;;
2021/05/23 05:13:31;;;;;;;;;;;;;;;;;;;;;
2021/05/23 05:16:14;;;;;;;2.63;1.60;;;8.20;99.90;;;;;;6105528;23;20080;-92
2021/05/23 05:18:53;;;;;;;2.65;1.52;;;8.30;99.90;;;;;;6186181;23;20052;-92
2021/05/23 05:22:33;;;;;;;2.17;1.42;;;8.40;99.90;;;;;;6100505;23;20030;-94
2021/05/23 05:25:28;;;;;;;2.60;1.50;;;8.40;99.90;;;;;;6010321;23;20027;-94
2021/05/23 05:27:57;;;;;;;3.15;1.10;;;8.40;99.90;;;;;;6061693;23;20026;-92
2021/05/23 05:31:08;;;;;;;1.77;1.30;;;8.40;99.90;;;;;;6100161;23;20180;-91
2021/05/23 05:34:00;;;;;;;1.52;1.23;;;8.40;99.90;;;;;;6105033;23;20073;-93
2021/05/23 05:36:33;;;;;;;1.83;1.20;;;8.40;99.90;;;;;;6045213;23;20023;-93
2021/05/23 05:39:04;;;;;;;1.63;1.08;;;8.40;99.90;;;;;;6083444;23;20048;-89
2021/05/23 05:41:31;;;;;;;2.90;1.20;;;8.30;99.90;;;;;;6098328;23;20295;-90
2021/05/23 05:43:58;;;;;;;3.78;1.40;;;8.30;99.90;;;;;;6094193;23;20023;-91
2021/05/23 05:46:28;;;;;;;3.05;1.23;;;8.30;99.90;;;;;;6095087;23;20023;-92
2021/05/23 05:48:57;;;;;;;3.60;1.30;;;8.20;99.90;;;;;;6096580;23;20190;-91
2021/05/23 05:51:30;;;;;;;3.75;1.50;;;8.30;99.90;;;;;;6103726;23;20018;-93
2021/05/23 05:54:00;;;;;;;2.83;1.00;;;8.40;99.90;;;;;;6159077;23;20032;-90
2021/05/23 05:56:30;;;;;;;4.15;1.20;;;8.40;99.90;;;;;;6185356;23;20025;-93
2021/05/23 05:59:23;;;;;;;2.63;1.27;;;8.40;99.90;;;;;;6184283;23;20032;-92
2021/05/23 06:02:21;;;;;;;1.13;0.80;;;8.50;99.90;;;;;;6185208;23;20044;-93
2021/05/23 06:04:50;;;;;;;3.40;1.10;;;8.60;99.90;;;;;;6159635;23;20077;-92
2021/05/23 06:07:18;;;;;;;5.45;1.42;;;8.60;99.90;;;;;;6187247;23;20112;-94
2021/05/23 06:10:17;;;;;;;3.22;0.98;;;8.40;99.90;;;;;;6161640;23;20021;-94
2021/05/23 06:12:52;;;;;;;1.80;1.10;;;8.40;99.90;;;;;;6162685;23;20041;-89
2021/05/23 06:15:22;;;;;;;2.63;1.00;;;8.40;99.90;;;;;;6158901;23;20040;-89
2021/05/23 06:17:51;;;;;;;2.30;1.02;;;8.50;99.90;;;;;;6183728;23;20113;-91
2021/05/23 06:20:18;;;;;;;1.45;0.98;;;8.60;99.90;;;;;;6161667;23;20021;-90
2021/05/23 06:22:45;;;;;;;2.88;0.90;;;8.80;99.90;;;;;;6187653;23;20100;-89
2021/05/23 06:25:36;;;;;;;1.30;0.98;;;9.00;99.90;;;;;;6170300;23;20036;-91
2021/05/23 06:28:11;;;;;;;2.58;0.98;;;9.00;99.90;;;;;;6168248;23;20021;-94
2021/05/23 06:31:04;;;;;;;1.98;1.10;;;8.90;99.90;;;;;;6082684;23;20790;-92
2021/05/23 06:33:33;;;;;;;1.77;1.02;;;8.80;99.90;;;;;;6061547;23;20037;-92
2021/05/23 06:36:25;;;;;;;;;;;;;;;;;;;;;
2021/05/23 06:39:51;;;;;;;2.03;1.10;;;8.70;99.90;;;;;;5959392;24;20025;-91
2021/05/23 06:42:32;;;;;;;2.40;1.20;;;8.60;99.90;;;;;;5958531;24;20085;-92
2021/05/23 06:45:54;;;;;;;3.60;1.42;;;8.60;99.90;;;;;;5958958;24;20156;-93
2021/05/23 06:49:19;;;;;;;2.80;1.10;;;8.60;99.90;;;;;;6007384;23;20049;-94
2021/05/23 06:56:12;;;;;;;3.33;1.33;;;9.20;99.90;;;;;;6062637;23;20022;-92
2021/05/23 07:07:08;;;;;;;;;;;;;;;;;;;;;
2021/05/23 07:10:25;;;;;;;2.10;0.68;;;11.20;99.90;;;;;;5928699;24;20063;-91
2021/05/23 07:13:09;;;;;;;1.63;0.75;;;11.20;99.90;;;;;;5927754;24;20113;-94
2021/05/23 07:15:36;;;;;;;0.80;0.80;;;11.00;99.90;;;;;;5955837;24;20412;-91
2021/05/23 07:18:31;;;;;;;1.05;0.77;;;11.40;99.90;;;;;;5983253;24;20388;-92
2021/05/23 07:21:33;;;;;;;0.82;0.73;;;11.70;99.90;;;;;;5991312;24;20044;-93
2021/05/23 07:24:00;;;;;;;2.67;0.60;;;11.70;99.90;;;;;;6082962;23;20021;-91
2021/05/23 07:26:45;;;;;;;2.95;1.10;;;11.30;99.90;;;;;;6160288;23;20021;-91
2021/05/23 07:29:15;;;;;;;3.28;1.00;;;10.70;99.90;;;;;;6189029;23;20047;-94
2021/05/23 07:31:48;;;;;;;2.50;1.02;;;10.60;99.90;;;;;;6188146;23;20095;-94
2021/05/23 07:34:17;;;;;;;0.77;0.73;;;10.40;99.90;;;;;;6187149;23;20021;-92
2021/05/23 07:36:55;;;;;;;2.83;1.15;;;10.00;99.90;;;;;;6186123;23;20021;-90
2021/05/23 07:39:22;;;;;;;1.42;0.85;;;9.70;99.90;;;;;;6185517;23;20352;-94
2021/05/23 07:42:07;;;;;;;1.40;1.02;;;9.50;99.90;;;;;;6186305;23;20040;-92
2021/05/23 07:44:42;;;;;;;2.65;1.02;;;9.20;99.90;;;;;;6165055;23;20021;-93
2021/05/23 07:47:18;;;;;;;4.72;1.60;;;9.00;99.90;;;;;;6191912;23;20021;-93
2021/05/23 07:50:08;;;;;;;2.78;1.05;;;8.90;99.90;;;;;;6191387;23;20028;-92
2021/05/23 07:53:37;;;;;;;3.53;1.52;;;9.00;99.90;;;;;;6161652;23;20060;-92
2021/05/23 07:56:18;;;;;;;1.65;1.13;;;9.60;99.90;;;;;;6086069;23;20094;-92
2021/05/23 07:58:45;;;;;;;2.95;1.10;;;10.40;99.90;;;;;;6086821;23;20026;-91
2021/05/23 08:01:13;;;;;;;1.83;1.10;;;10.50;99.90;;;;;;6152920;23;20025;-92
2021/05/23 08:04:28;;;;;;;;;;;;;;;;;;;;;
2021/05/23 08:07:29;;;;;;;;;;;;;;;;;;;;;
2021/05/23 08:09:59;;;;;;;2.55;0.90;;;10.30;99.90;;;;;;6101956;23;20315;-93
2021/05/23 08:12:58;;;;;;;2.10;1.13;;;10.30;99.90;;;;;;6100392;23;20066;-92
2021/05/23 08:15:26;;;;;;;1.58;1.05;;;10.30;99.90;;;;;;6093758;23;20062;-93
2021/05/23 08:25:34;;;;;;;2.72;1.10;;;12.00;99.90;;;;;;5909630;24;20047;-92
2021/05/23 08:28:03;;;;;;;2.22;1.02;;;13.10;99.90;;;;;;5953117;24;20095;-90
2021/05/23 08:30:30;;;;;;;2.80;0.85;;;13.30;99.90;;;;;;6083346;23;20022;-91
2021/05/23 08:32:59;;;;;;;2.17;0.85;;;13.50;99.90;;;;;;6074534;23;20021;-89
2021/05/23 08:35:29;;;;;;;3.42;0.80;;;13.80;99.90;;;;;;6121844;23;20440;-90
2021/05/23 08:38:13;;;;;;;4.60;1.00;;;13.80;99.90;;;;;;6101359;23;20026;-93
2021/05/23 08:40:41;;;;;;;4.18;1.17;;;13.50;99.90;;;;;;6081743;23;20041;-91
2021/05/23 08:43:13;;;;;;;2.20;1.00;;;13.20;99.90;;;;;;6102389;23;20085;-92
2021/05/23 08:45:59;;;;;;;1.45;1.02;;;13.50;99.90;;;;;;6123921;23;20025;-94
2021/05/23 08:48:37;;;;;;;6.90;1.10;;;13.20;99.90;;;;;;6122722;23;20469;-92
2021/05/23 08:51:08;;;;;;;6.05;2.20;;;13.10;99.90;;;;;;6124674;23;20026;-93
2021/05/23 08:53:37;;;;;;;8.68;2.63;;;13.20;99.90;;;;;;6098838;23;20090;-93
2021/05/23 08:56:27;;;;;;;;;;;;;;;;;;;;;
2021/05/23 09:00:04;;;;;;;3.08;1.10;;;14.60;96.90;;;;;;6130600;23;20021;-93
2021/05/23 09:02:37;;;;;;;5.07;1.05;;;13.90;95.70;;;;;;6070036;23;20033;-93
2021/05/23 09:05:41;;;;;;;2.33;0.90;;;14.00;92.60;;;;;;6139534;23;20085;-92
2021/05/23 09:08:14;;;;;;;2.05;0.80;;;13.70;93.40;;;;;;6126619;23;20021;-93
2021/05/23 09:10:43;;;;;;;2.67;0.95;;;13.40;95.80;;;;;;6155900;23;20401;-92
2021/05/23 09:13:25;;;;;;;3.30;1.00;;;13.30;97.90;;;;;;6132269;23;20121;-94
2021/05/23 09:16:27;;;;;;;3.58;1.02;;;13.10;99.20;;;;;;6131529;23;20078;-93
2021/05/23 09:19:18;;;;;;;5.07;1.00;;;12.90;97.60;;;;;;6123134;23;20033;-93
2021/05/23 09:21:57;;;;;;;2.35;0.80;;;12.30;99.20;;;;;;6131085;23;20037;-91
2021/05/23 09:24:38;;;;;;;;;;;;;;;;;;;;;
2021/05/23 09:27:24;;;;;;;2.17;1.05;;;10.80;99.90;;;;;;6173301;23;20096;-95
2021/05/23 09:30:31;;;;;;;1.90;1.38;;;10.40;99.90;;;;;;6163255;23;20017;-94
2021/05/23 09:32:58;;;;;;;3.38;1.00;;;10.30;99.90;;;;;;6186269;23;20021;-94
2021/05/23 09:35:31;;;;;;;1.33;0.75;;;10.50;99.90;;;;;;6192622;23;20028;-92
2021/05/23 09:38:28;;;;;;;1.65;0.63;;;10.90;99.90;;;;;;6189011;23;20049;-94
2021/05/23 09:41:55;;;;;;;3.97;1.10;;;11.60;99.90;;;;;;6196996;23;20025;-94
2021/05/23 09:49:03;;;;;;;2.30;0.80;;;13.90;98.10;;;;;;5855150;24;20124;-93
2021/05/23 09:52:09;;;;;;;1.20;0.70;;;14.70;89.70;;;;;;5883102;23;20096;-93
2021/05/23 09:54:48;;;;;;;2.50;0.60;;;15.40;91.70;;;;;;6043970;23;20030;-90
2021/05/23 09:57:49;;;;;;;2.72;0.63;;;16.40;82.00;;;;;;6051362;23;20478;-94
2021/05/23 10:00:40;;;;;;;1.17;0.50;;;17.00;75.20;;;;;;6044578;23;20026;-92
2021/05/23 10:03:52;;;;;;;1.33;0.80;;;17.80;72.90;;;;;;5957546;24;20021;-94
2021/05/23 10:06:38;;;;;;;1.27;0.73;;;18.20;67.90;;;;;;6051145;23;20058;-92
2021/05/23 10:09:15;;;;;;;1.83;0.52;;;18.60;67.00;;;;;;6064507;23;20036;-91
2021/05/23 10:11:52;;;;;;;4.50;0.80;;;17.30;65.40;;;;;;6043920;23;20026;-92
2021/05/23 10:15:12;;;;;;;;;;;;;;;;;;;;;
2021/05/23 10:18:05;;;;;;;2.65;0.70;;;15.50;75.10;;;;;;6009159;23;20167;-91
2021/05/23 10:20:59;;;;;;;2.20;0.60;;;16.50;71.10;;;;;;6025244;23;20018;-91
2021/05/23 10:23:48;;;;;;;4.10;0.80;;;17.30;68.70;;;;;;6093785;23;20085;-92
2021/05/23 10:29:31;;;;;;;2.38;0.55;;;18.50;63.50;;;;;;6105923;23;20026;-94
2021/05/23 10:32:32;;;;;;;1.45;0.75;;;18.30;61.70;;;;;;6093161;23;20505;-93
2021/05/23 10:35:51;;;;;;;2.40;0.70;;;18.00;60.90;;;;;;6090039;23;20033;-91
2021/05/23 10:38:22;;;;;;;0.60;0.60;;;16.80;63.00;;;;;;6145098;23;20136;-91
2021/05/23 10:41:18;;;;;;;1.85;0.70;;;16.40;64.80;;;;;;6127159;23;20060;-92
2021/05/23 10:44:21;;;;;;;3.28;0.85;;;16.00;67.40;;;;;;6153558;23;20033;-92
2021/05/23 10:46:53;;;;;;;2.33;1.00;;;15.00;71.50;;;;;;6129470;23;20109;-92
2021/05/23 10:49:20;;;;;;;2.17;1.07;;;14.00;82.50;;;;;;6151605;23;20045;-92
2021/05/23 10:51:57;;;;;;;3.70;1.00;;;13.20;91.50;;;;;;6126084;23;20018;-90
2021/05/23 10:54:24;;;;;;;1.15;1.02;;;12.90;99.90;;;;;;6129185;23;20457;-91
2021/05/23 10:57:04;;;;;;;4.25;1.10;;;13.20;99.90;;;;;;6128218;23;20017;-92
2021/05/23 11:00:00;;;;;;;1.77;0.80;;;13.60;99.90;;;;;;6107959;23;20095;-92
2021/05/23 11:02:49;;;;;;;1.45;0.90;;;14.70;90.70;;;;;;6160957;23;20047;-91
2021/05/23 11:05:58;;;;;;;1.73;0.85;;;14.70;87.40;;;;;;6161494;23;20017;-92
2021/05/23 11:08:33;;;;;;;1.02;0.70;;;15.10;84.80;;;;;;6161025;23;20069;-92
2021/05/23 11:11:26;;;;;;;1.25;0.60;;;15.40;80.70;;;;;;6133294;23;20028;-92
2021/05/23 11:13:55;;;;;;;1.03;0.70;;;15.00;78.30;;;;;;6186561;23;20033;-92
2021/05/23 11:16:25;;;;;;;2.88;0.68;;;14.70;81.60;;;;;;6185772;23;20244;-93
2021/05/23 11:22:07;;;;;;;1.40;0.47;;;14.50;82.30;;;;;;6165271;23;20029;-92
2021/05/23 11:24:49;;;;;;;2.38;1.10;;;14.90;80.80;;;;;;6193482;23;20377;-92
2021/05/23 11:27:27;;;;;;;0.65;0.50;;;16.10;72.00;;;;;;6199210;23;20048;-92
2021/05/23 11:30:37;;;;;;;2.30;0.60;;;16.30;70.50;;;;;;6175500;23;20064;-92
2021/05/23 11:33:16;;;;;;;1.63;0.57;;;16.50;68.90;;;;;;6183483;23;20021;-93
2021/05/23 11:35:49;;;;;;;3.72;0.68;;;17.30;66.20;;;;;;6204213;23;20032;-90
2021/05/23 11:38:16;;;;;;;1.77;0.50;;;18.40;63.00;;;;;;6199639;23;20023;-89
2021/05/23 11:40:43;;;;;;;1.50;0.60;;;18.80;59.90;;;;;;6161714;23;20021;-88
2021/05/23 11:43:24;;;;;;;0.90;0.40;;;18.90;58.30;;;;;;6191198;23;20034;-91
2021/05/23 11:46:02;;;;;;;1.10;0.52;;;18.70;59.50;;;;;;6162637;23;20017;-93
2021/05/23 11:48:46;;;;;;;1.77;0.50;;;18.30;61.30;;;;;;6162316;23;20029;-92
2021/05/23 11:51:31;;;;;;;3.50;0.70;;;18.00;60.20;;;;;;6191642;23;20028;-90
2021/05/23 11:54:46;;;;;;;3.97;0.90;;;16.70;64.20;;;;;;6191776;23;20285;-89
2021/05/23 11:57:25;;;;;;;2.40;0.70;;;17.20;65.10;;;;;;6186691;23;20025;-91
2021/05/23 11:59:53;;;;;;;1.33;0.65;;;18.40;59.70;;;;;;6184157;23;20017;-92
2021/05/23 12:02:30;;;;;;;3.13;0.60;;;18.70;57.90;;;;;;6160041;23;20057;-92
2021/05/23 12:05:05;;;;;;;4.20;0.90;;;18.10;57.40;;;;;;6160487;23;20028;-89
2021/05/23 12:07:39;;;;;;;1.05;0.68;;;18.60;57.80;;;;;;6159719;23;20014;-90
2021/05/23 12:10:06;;;;;;;1.10;0.70;;;18.60;55.60;;;;;;6158574;23;20013;-90
2021/05/23 12:12:33;;;;;;;1.42;0.63;;;18.30;55.00;;;;;;6161609;23;20397;-90
2021/05/23 12:15:03;;;;;;;1.38;0.60;;;17.90;55.20;;;;;;6168753;23;20031;-87
2021/05/23 12:17:39;;;;;;;1.47;0.73;;;17.20;57.60;;;;;;6200196;23;20024;-92
2021/05/23 12:20:10;;;;;;;3.05;0.70;;;16.10;62.70;;;;;;6173526;23;20021;-90
2021/05/23 12:22:49;;;;;;;;;;;;;;;;;;;;;
2021/05/23 12:25:40;;;;;;;1.23;0.60;;;14.70;91.20;;;;;;6186306;23;20029;-91
2021/05/23 12:28:07;;;;;;;2.08;0.77;;;13.90;91.10;;;;;;6184314;23;20023;-91
2021/05/23 12:30:36;;;;;;;2.92;0.90;;;14.30;86.60;;;;;;6185594;23;20028;-93
2021/05/23 12:33:08;;;;;;;4.30;0.70;;;15.20;75.10;;;;;;6162535;23;20013;-93
2021/05/23 12:35:45;;;;;;;1.33;0.63;;;16.10;70.30;;;;;;6165954;23;20013;-92
2021/05/23 12:46:10;;;;;;;2.88;0.60;;;18.90;57.40;;;;;;6017559;23;20148;-93
2021/05/23 12:57:33;;;;;;;;;;;;;;;;;;;;;
2021/05/23 13:00:28;;;;;;;0.75;0.45;;;18.20;58.60;;;;;;5089558;27;20454;-93
2021/05/23 13:03:10;;;;;;;1.33;0.40;;;19.90;55.10;;;;;;5087004;28;20055;-94
2021/05/23 13:17:12;;;;;;;3.67;0.90;;;18.40;57.50;;;;;;5060739;28;20072;-93
2021/05/23 13:19:51;;;;;;;2.72;1.20;;;18.00;58.10;;;;;;5076287;28;20058;-94
2021/05/23 13:22:58;;;;;;;1.52;0.75;;;17.50;59.00;;;;;;5086292;28;20054;-93
2021/05/23 13:26:51;;;;;;;;;;;;;;;;;;;;;
2021/05/23 13:30:37;;;;;;;2.65;0.63;;;19.20;56.50;;;;;;5065552;28;20047;-93
2021/05/23 13:33:27;;;;;;;2.05;0.70;;;20.80;50.70;;;;;;5055134;28;20045;-91
2021/05/23 13:36:25;;;;;;;1.15;0.50;;;19.50;50.50;;;;;;5089395;28;20106;-94
2021/05/23 13:39:10;;;;;;;;;;;;;;;;;;;;;
2021/05/23 13:42:11;;;;;;;1.65;0.70;;;17.00;57.60;;;;;;5088506;28;20040;-93
2021/05/23 13:45:15;;;;;;;3.33;0.80;;;16.50;58.00;;;;;;5011980;28;20052;-93
2021/05/23 13:48:16;;;;;;;0.93;0.60;;;17.40;58.10;;;;;;4998834;28;20138;-92
2021/05/23 13:51:10;;;;;;;1.95;0.70;;;18.40;53.50;;;;;;4972980;28;20138;-93
2021/05/23 13:54:29;;;;;;;1.50;0.70;;;19.80;51.80;;;;;;4981837;28;20050;-91
2021/05/23 13:56:58;;;;;;;1.63;0.70;;;20.80;50.70;;;;;;4951451;28;20333;-93
2021/05/23 13:59:39;;;;;;;2.53;0.55;;;21.10;47.00;;;;;;4961736;28;20058;-90
2021/05/23 14:02:20;;;;;;;0.88;0.47;;;20.90;46.20;;;;;;5011507;28;20122;-93
2021/05/23 14:05:07;;;;;;;0.70;0.50;;;20.20;45.00;;;;;;5074481;28;20044;-91
2021/05/23 14:08:18;;;;;;;2.15;0.60;;;19.80;46.50;;;;;;5090311;27;20070;-93
2021/05/23 14:11:35;;;;;;;1.45;0.40;;;20.10;47.20;;;;;;5074156;28;20189;-92
2021/05/23 14:14:22;;;;;;;2.20;0.68;;;20.50;47.60;;;;;;5071918;28;20127;-93
2021/05/23 14:17:02;;;;;;;1.00;0.50;;;20.50;43.90;;;;;;5063493;27;20049;-91
2021/05/23 14:20:26;;;;;;;;;;;;;;;;;;;;;
2021/05/23 14:23:42;;;;;;;2.30;0.70;;;20.30;48.00;;;;;;4992469;28;20050;-92
2021/05/23 14:27:20;;;;;;;1.85;0.60;;;19.70;49.20;;;;;;5008692;28;20494;-91
2021/05/23 14:34:17;;;;;;;1.20;0.50;;;20.20;46.20;;;;;;4978995;28;20050;-91
2021/05/23 14:37:13;;;;;;;2.15;0.88;;;20.10;44.60;;;;;;4977047;28;20046;-93
2021/05/23 14:39:43;;;;;;;0.47;0.35;;;20.00;46.00;;;;;;5001424;28;20045;-93
2021/05/23 14:42:37;;;;;;;1.20;0.80;;;19.80;44.40;;;;;;5011177;28;20063;-93
2021/05/23 14:45:25;;;;;;;;;;;;;;;;;;;;;
2021/05/23 14:52:40;;;;;;;0.95;0.60;;;17.70;50.30;;;;;;4911575;29;20084;-93
2021/05/23 14:55:34;;;;;;;5.72;0.70;;;17.00;52.50;;;;;;4918302;29;20054;-92
2021/05/23 14:59:12;;;;;;;;;;;;;;;;;;;;;
2021/05/23 15:01:39;;;;;;;2.28;0.70;;;16.50;54.00;;;;;;4889530;29;20072;-93
2021/05/23 15:04:32;;;;;;;1.83;0.80;;;16.80;54.20;;;;;;4912210;29;20059;-92
2021/05/23 15:11:42;;;;;;;3.08;1.00;;;16.60;55.80;;;;;;4883822;29;20045;-92
2021/05/23 15:14:29;;;;;;;4.78;1.05;;;16.40;56.10;;;;;;4902472;28;20060;-93
2021/05/23 15:17:10;;;;;;;3.10;0.95;;;17.70;54.20;;;;;;5023038;28;20188;-91
2021/05/23 15:19:51;;;;;;;1.75;0.70;;;19.20;50.10;;;;;;5023438;28;20117;-93
2021/05/23 15:22:34;;;;;;;2.25;0.95;;;19.50;47.60;;;;;;5007650;28;20038;-91
2021/05/23 15:25:09;;;;;;;3.30;1.20;;;19.00;49.10;;;;;;5014612;28;20058;-90
2021/05/23 15:31:43;;;;;;;2.90;0.98;;;17.40;52.60;;;;;;5018691;28;20050;-91
2021/05/23 15:34:34;;;;;;;2.90;1.42;;;16.50;54.50;;;;;;4995982;28;20113;-92
2021/05/23 15:37:25;;;;;;;2.88;0.90;;;16.60;54.80;;;;;;4996341;28;20052;-89
2021/05/23 15:39:56;;;;;;;3.03;1.02;;;16.60;55.20;;;;;;5069070;28;20040;-89
2021/05/23 15:42:23;;;;;;;3.30;0.80;;;16.50;55.50;;;;;;5062895;28;20556;-93
2021/05/23 15:44:51;;;;;;;1.70;0.80;;;16.50;55.30;;;;;;5071231;28;20441;-90
2021/05/23 15:47:28;;;;;;;2.15;0.93;;;16.90;54.00;;;;;;5057083;28;20418;-92
2021/05/23 15:50:18;;;;;;;3.38;0.90;;;17.80;51.90;;;;;;5087127;28;20044;-93
2021/05/23 15:52:49;;;;;;;3.00;0.85;;;18.20;51.80;;;;;;5068724;28;20060;-91
2021/05/23 15:55:20;;;;;;;4.18;1.05;;;18.30;51.40;;;;;;5063806;28;20052;-92
2021/05/23 16:01:24;;;;;;;2.55;1.00;;;18.10;52.50;;;;;;4948291;29;20070;-91
2021/05/23 16:09:07;;;;;;;;;;;;;;;;;;;;;
2021/05/23 16:12:51;;;;;;;3.72;1.08;;;17.50;55.30;;;;;;4970045;28;20045;-91
2021/05/23 16:15:48;;;;;;;;;;;;;;;;;;;;;
2021/05/23 16:33:33;;;;;;;3.95;1.13;;;15.50;59.50;;;;;;4869496;29;20051;-91
2021/05/23 16:36:32;;;;;;;4.68;1.05;;;15.70;59.30;;;;;;4854380;29;20129;-91
2021/05/23 16:39:07;;;;;;;2.80;0.90;;;16.00;58.60;;;;;;4934886;28;20091;-91
2021/05/23 16:42:22;;;;;;;3.47;1.30;;;16.30;57.90;;;;;;4959327;28;20074;-93
2021/05/23 16:45:22;;;;;;;1.67;0.90;;;16.60;57.80;;;;;;4911924;28;20065;-93
2021/05/23 16:48:29;;;;;;;3.08;0.90;;;16.10;58.00;;;;;;4942333;28;20061;-93
2021/05/23 16:54:23;;;;;;;3.00;0.90;;;15.30;59.50;;;;;;4967455;28;20073;-92
2021/05/23 17:12:18;;;;;;;2.10;0.90;;;14.50;61.80;;;;;;4594070;22;20082;-93
2021/05/23 17:14:58;;;;;;;2.53;1.08;;;14.50;62.90;;;;;;5009590;28;20049;-92
2021/05/23 17:18:15;;;;;;;2.72;1.00;;;14.40;64.50;;;;;;5022169;28;20038;-92
2021/05/23 17:20:40;;;;;;;2.42;0.93;;;14.40;63.60;;;;;;5011256;28;20366;-90
2021/05/23 17:23:12;;;;;;;1.53;0.83;;;14.30;63.60;;;;;;4990173;28;20042;-93